Time;durP1;ratioP1;P1;durP2;ratioP2;P2;SDS_P1;SDS_P2;PMS_P1;PMS_P2;Temp;Humidity;BMP_temperature;BMP_pressure;BME280_temperature;BME280_humidity;BME280_pressure;Samples;Min_cycle;Max_cycle;Signal;HPM_P1;HPM_P2
2022/07/01 00:01:46;;;;;;;0.10;0.00;;;20.10;99.90;;;;;;4986877;28;20547;-88
2022/07/01 00:04:12;;;;;;;0.10;0.00;;;20.00;99.90;;;;;;4985904;28;20192;-87
2022/07/01 00:06:38;;;;;;;0.10;0.00;;;20.10;99.90;;;;;;4987118;28;20440;-86
2022/07/01 00:09:04;;;;;;;0.10;0.10;;;20.00;99.90;;;;;;4992361;28;20280;-87
2022/07/01 00:11:36;;;;;;;0.10;0.00;;;20.00;99.90;;;;;;4990897;28;20213;-88
2022/07/01 00:14:01;;;;;;;0.10;0.00;;;20.00;99.90;;;;;;4990348;28;20455;-86
2022/07/01 00:16:27;;;;;;;0.10;0.00;;;20.00;99.90;;;;;;4991407;28;20451;-84
2022/07/01 00:18:52;;;;;;;0.10;0.00;;;20.10;99.90;;;;;;4987665;28;20314;-88
2022/07/01 00:21:18;;;;;;;0.10;0.10;;;20.00;99.90;;;;;;4991673;28;20188;-86
2022/07/01 00:23:43;;;;;;;0.10;0.00;;;20.00;99.90;;;;;;4992405;28;20252;-86
2022/07/01 00:26:09;;;;;;;0.10;0.00;;;20.00;99.90;;;;;;4990072;28;20243;-87
2022/07/01 00:28:34;;;;;;;0.10;0.00;;;20.00;99.90;;;;;;4987330;28;20193;-87
2022/07/01 00:31:00;;;;;;;0.10;0.00;;;20.00;99.90;;;;;;4993919;28;20187;-86
2022/07/01 00:33:25;;;;;;;0.10;0.00;;;20.10;99.90;;;;;;4976000;28;20287;-87
2022/07/01 00:35:52;;;;;;;0.10;0.00;;;20.00;99.90;;;;;;4987687;28;20228;-86
2022/07/01 00:38:17;;;;;;;0.10;0.00;;;20.00;99.90;;;;;;5002618;28;20225;-87
2022/07/01 00:40:43;;;;;;;0.10;0.10;;;20.10;99.90;;;;;;5000383;28;20979;-87
2022/07/01 00:43:10;;;;;;;0.10;0.10;;;20.10;99.90;;;;;;4991836;28;20274;-87
2022/07/01 00:45:35;;;;;;;0.10;0.00;;;20.10;99.90;;;;;;4982480;28;20193;-86
2022/07/01 00:48:01;;;;;;;0.10;0.00;;;20.10;99.90;;;;;;4990850;28;20974;-86
2022/07/01 00:50:27;;;;;;;0.10;0.00;;;20.10;99.90;;;;;;4990208;28;20241;-87
2022/07/01 00:52:52;;;;;;;0.10;0.10;;;20.10;99.90;;;;;;4992465;28;20178;-84
2022/07/01 00:55:18;;;;;;;0.10;0.10;;;20.00;99.90;;;;;;4973422;28;22046;-84
2022/07/01 00:57:43;;;;;;;0.10;0.10;;;20.00;99.90;;;;;;4978804;28;20216;-84
2022/07/01 01:00:15;;;;;;;0.10;0.00;;;20.10;99.90;;;;;;4986782;28;20196;-87
2022/07/01 01:02:41;;;;;;;0.10;0.10;;;20.10;99.90;;;;;;4990885;28;20185;-87
2022/07/01 01:05:08;;;;;;;0.10;0.10;;;20.10;99.90;;;;;;4982991;28;20439;-88
2022/07/01 01:07:34;;;;;;;0.10;0.07;;;20.10;99.90;;;;;;4977931;28;20453;-87
2022/07/01 01:10:01;;;;;;;0.10;0.00;;;20.10;99.90;;;;;;4989834;28;20524;-86
2022/07/01 01:12:28;;;;;;;0.10;0.00;;;20.00;99.90;;;;;;5001645;28;20504;-89
2022/07/01 01:14:53;;;;;;;0.10;0.10;;;19.90;99.90;;;;;;4990823;28;20440;-89
2022/07/01 01:17:21;;;;;;;0.10;0.00;;;19.80;99.90;;;;;;4988356;28;20533;-90
2022/07/01 01:19:48;;;;;;;0.10;0.00;;;19.70;99.90;;;;;;4988588;28;20208;-90
2022/07/01 01:22:15;;;;;;;0.10;0.10;;;19.60;99.90;;;;;;4993363;28;20479;-92
2022/07/01 01:24:41;;;;;;;0.10;0.00;;;19.70;99.90;;;;;;4990205;28;20444;-92
2022/07/01 01:27:07;;;;;;;0.10;0.10;;;19.60;99.90;;;;;;4991764;28;20456;-93
2022/07/01 01:29:35;;;;;;;0.10;0.00;;;19.50;99.90;;;;;;4992431;28;20444;-94
2022/07/01 01:32:01;;;;;;;0.10;0.00;;;19.50;99.90;;;;;;4991158;28;20463;-92
2022/07/01 01:34:27;;;;;;;0.10;0.10;;;19.40;99.90;;;;;;4991948;28;20472;-92
2022/07/01 01:36:52;;;;;;;0.10;0.10;;;19.40;99.90;;;;;;4991948;28;20197;-92
2022/07/01 01:39:18;;;;;;;0.10;0.00;;;19.40;99.90;;;;;;4974344;28;20224;-91
2022/07/01 01:41:44;;;;;;;0.10;0.00;;;19.40;99.90;;;;;;4988611;28;20193;-89
2022/07/01 01:44:10;;;;;;;0.10;0.10;;;19.30;99.90;;;;;;5002633;28;20523;-90
2022/07/01 01:46:37;;;;;;;0.10;0.10;;;19.40;99.90;;;;;;4990093;28;20446;-91
2022/07/01 01:49:04;;;;;;;0.10;0.00;;;19.40;99.90;;;;;;4992915;28;20448;-91
2022/07/01 01:51:30;;;;;;;0.10;0.00;;;19.40;99.90;;;;;;4991376;28;20538;-91
2022/07/01 01:53:56;;;;;;;0.10;0.00;;;19.40;99.90;;;;;;4993745;28;20451;-92
2022/07/01 01:56:22;;;;;;;0.10;0.00;;;19.40;99.90;;;;;;4999532;28;20440;-91
2022/07/01 01:58:47;;;;;;;0.10;0.00;;;19.40;99.90;;;;;;4993898;28;20276;-92
2022/07/01 02:01:14;;;;;;;0.10;0.00;;;19.30;99.90;;;;;;4991285;28;20452;-92
2022/07/01 02:03:41;;;;;;;0.10;0.00;;;19.30;99.90;;;;;;4972280;28;20246;-92
2022/07/01 02:06:09;;;;;;;0.10;0.10;;;19.30;99.90;;;;;;4991585;28;20452;-91
2022/07/01 02:08:35;;;;;;;0.10;0.10;;;19.30;99.90;;;;;;4991269;28;20448;-92
2022/07/01 02:11:00;;;;;;;0.10;0.10;;;19.40;99.90;;;;;;4989607;28;20444;-92
2022/07/01 02:13:27;;;;;;;0.10;0.00;;;19.40;99.90;;;;;;5002220;28;20452;-94
2022/07/01 02:15:52;;;;;;;0.10;0.00;;;19.50;99.90;;;;;;4991167;28;20235;-94
2022/07/01 02:18:18;;;;;;;0.10;0.00;;;19.50;99.90;;;;;;4992193;28;20484;-93
2022/07/01 02:20:43;;;;;;;0.10;0.10;;;19.40;99.90;;;;;;4990771;28;20192;-91
2022/07/01 02:23:09;;;;;;;0.10;0.10;;;19.40;99.90;;;;;;4993142;28;20193;-94
2022/07/01 02:25:35;;;;;;;0.10;0.00;;;19.40;99.90;;;;;;4991093;28;20189;-91
2022/07/01 02:28:02;;;;;;;0.10;0.10;;;19.30;99.90;;;;;;4992683;28;20808;-92
2022/07/01 02:30:28;;;;;;;0.10;0.00;;;19.40;99.90;;;;;;4991823;28;20483;-94
2022/07/01 02:32:53;;;;;;;0.10;0.00;;;19.30;99.90;;;;;;4994985;28;20541;-94
2022/07/01 02:35:19;;;;;;;0.10;0.00;;;19.30;99.90;;;;;;5000176;28;20507;-94
2022/07/01 02:37:45;;;;;;;0.10;0.10;;;19.30;99.90;;;;;;4993074;28;20208;-93
2022/07/01 02:40:13;;;;;;;0.10;0.10;;;19.30;99.90;;;;;;4989823;28;20840;-95
2022/07/01 02:42:38;;;;;;;0.10;0.10;;;19.40;99.90;;;;;;4991323;28;20788;-94
2022/07/01 02:45:06;;;;;;;0.10;0.00;;;19.40;99.90;;;;;;4991470;28;20535;-94
2022/07/01 02:47:36;;;;;;;0.10;0.00;;;19.40;99.90;;;;;;4992488;28;20677;-94
2022/07/01 02:50:07;;;;;;;0.10;0.00;;;19.40;99.90;;;;;;4974676;28;20888;-93
2022/07/01 02:52:34;;;;;;;0.10;0.00;;;19.30;99.90;;;;;;4993352;28;20431;-94
2022/07/01 02:55:00;;;;;;;0.10;0.00;;;19.30;99.90;;;;;;4989868;28;20432;-94
2022/07/01 02:57:26;;;;;;;0.10;0.00;;;19.30;99.90;;;;;;4989448;28;20482;-90
2022/07/01 02:59:52;;;;;;;0.10;0.00;;;19.30;99.90;;;;;;4975122;28;20444;-89
2022/07/01 03:02:18;;;;;;;0.10;0.00;;;19.30;99.90;;;;;;4990745;28;20191;-94
2022/07/01 03:04:44;;;;;;;0.10;0.10;;;19.30;99.90;;;;;;4988711;28;20193;-94
2022/07/01 03:07:09;;;;;;;0.10;0.10;;;19.30;99.90;;;;;;4993554;28;20420;-94
2022/07/01 03:09:35;;;;;;;0.10;0.10;;;19.30;99.90;;;;;;4987403;28;20204;-94
2022/07/01 03:12:24;;;;;;;0.10;0.10;;;19.30;99.90;;;;;;4988464;28;20224;-94
2022/07/01 03:14:46;;;;;;;0.10;0.10;;;19.40;99.90;;;;;;4990925;28;20229;-94
2022/07/01 03:17:12;;;;;;;0.10;0.00;;;19.40;99.90;;;;;;4989338;28;20962;-93
2022/07/01 03:19:37;;;;;;;0.10;0.00;;;19.40;99.90;;;;;;4991523;28;20193;-94
2022/07/01 03:22:03;;;;;;;0.10;0.10;;;19.40;99.90;;;;;;4982674;28;20617;-93
2022/07/01 03:24:28;;;;;;;0.10;0.10;;;19.30;99.90;;;;;;4984906;28;20209;-94
2022/07/01 03:26:54;;;;;;;0.10;0.00;;;19.30;99.90;;;;;;4974796;28;20633;-94
2022/07/01 03:29:19;;;;;;;0.10;0.00;;;19.30;99.90;;;;;;4989566;28;20255;-92
2022/07/01 03:31:45;;;;;;;0.10;0.00;;;19.30;99.90;;;;;;4978291;28;20240;-89
2022/07/01 03:34:10;;;;;;;0.10;0.10;;;19.30;99.90;;;;;;4987389;28;20266;-92
2022/07/01 03:36:36;;;;;;;0.10;0.07;;;19.30;99.90;;;;;;4972248;28;20259;-92
2022/07/01 03:39:03;;;;;;;0.10;0.00;;;19.30;99.90;;;;;;4987702;28;20224;-94
2022/07/01 03:41:28;;;;;;;0.10;0.00;;;19.30;99.90;;;;;;4989171;28;20185;-94
2022/07/01 03:43:54;;;;;;;0.10;0.10;;;19.30;99.90;;;;;;4983571;28;20506;-93
2022/07/01 03:46:19;;;;;;;0.10;0.00;;;19.30;99.90;;;;;;4985188;28;20726;-92
2022/07/01 03:48:45;;;;;;;0.10;0.00;;;19.30;99.90;;;;;;4991232;28;20185;-92
2022/07/01 03:51:10;;;;;;;0.10;0.00;;;19.30;99.90;;;;;;4961004;28;20185;-92
2022/07/01 03:56:20;;;;;;;0.10;0.07;;;19.30;99.90;;;;;;4991259;28;20191;-92
2022/07/01 03:58:46;;;;;;;0.10;0.00;;;19.30;99.90;;;;;;4971248;28;20478;-92
2022/07/01 04:01:11;;;;;;;0.10;0.10;;;19.30;99.90;;;;;;4991058;28;20185;-93
2022/07/01 04:03:37;;;;;;;0.10;0.00;;;19.30;99.90;;;;;;4988781;28;20658;-92
2022/07/01 04:06:03;;;;;;;0.10;0.00;;;19.30;99.90;;;;;;4970004;28;20662;-92
2022/07/01 04:08:28;;;;;;;0.10;0.00;;;19.30;99.90;;;;;;4990040;28;20193;-93
2022/07/01 04:10:55;;;;;;;0.10;0.00;;;19.30;99.90;;;;;;4996239;28;20768;-93
2022/07/01 04:13:21;;;;;;;0.10;0.00;;;19.40;99.90;;;;;;4985826;28;20198;-94
2022/07/01 04:15:46;;;;;;;0.10;0.10;;;19.30;99.90;;;;;;4972698;28;20436;-93
2022/07/01 04:18:12;;;;;;;0.10;0.00;;;19.30;99.90;;;;;;4990197;28;21432;-94
2022/07/01 04:20:38;;;;;;;0.10;0.10;;;19.30;99.90;;;;;;4963698;28;20178;-93
2022/07/01 04:23:04;;;;;;;0.10;0.10;;;19.30;99.90;;;;;;4977958;28;20196;-94
2022/07/01 04:25:29;;;;;;;0.10;0.00;;;19.30;99.90;;;;;;4992417;28;20943;-91
2022/07/01 04:27:56;;;;;;;0.10;0.00;;;19.30;99.90;;;;;;4998240;28;20657;-93
2022/07/01 04:30:22;;;;;;;0.10;0.10;;;19.40;99.90;;;;;;4992503;28;20597;-92
2022/07/01 04:32:47;;;;;;;0.10;0.10;;;19.40;99.90;;;;;;4969673;28;21020;-91
2022/07/01 04:35:14;;;;;;;0.10;0.00;;;19.30;99.90;;;;;;4979825;28;20260;-90
2022/07/01 04:37:41;;;;;;;0.10;0.00;;;19.30;99.90;;;;;;4968138;28;20275;-91
2022/07/01 04:40:10;;;;;;;0.10;0.10;;;19.20;99.90;;;;;;4982989;28;20452;-88
2022/07/01 04:45:57;;;;;;;0.10;0.10;;;19.20;99.90;;;;;;4981541;28;20471;-88
2022/07/01 04:48:23;;;;;;;0.10;0.07;;;19.10;99.90;;;;;;4968135;28;20480;-89
2022/07/01 04:50:48;;;;;;;0.07;0.00;;;19.10;99.90;;;;;;4986511;28;22659;-88
2022/07/01 04:53:14;;;;;;;0.00;0.00;;;19.10;99.90;;;;;;5009318;28;20202;-89
2022/07/01 04:55:39;;;;;;;0.10;0.00;;;19.10;99.90;;;;;;4997303;28;20292;-88
2022/07/01 04:58:05;;;;;;;0.00;0.00;;;19.00;99.90;;;;;;5000492;28;20688;-89
2022/07/01 05:00:32;;;;;;;0.00;0.00;;;19.00;99.90;;;;;;4984947;28;20277;-90
2022/07/01 05:02:57;;;;;;;0.10;0.10;;;19.00;99.90;;;;;;4990642;28;20268;-87
2022/07/01 05:05:23;;;;;;;0.10;0.00;;;19.00;99.90;;;;;;4990615;28;20532;-89
2022/07/01 05:07:48;;;;;;;0.10;0.00;;;19.00;99.90;;;;;;4991826;28;20268;-89
2022/07/01 05:10:14;;;;;;;0.10;0.10;;;19.00;99.90;;;;;;4979766;28;20195;-89
2022/07/01 05:12:40;;;;;;;0.10;0.00;;;19.10;99.90;;;;;;4994793;28;20247;-90
2022/07/01 05:15:06;;;;;;;0.10;0.10;;;19.00;99.90;;;;;;4972753;28;20273;-89
2022/07/01 05:23:01;;;;;;;0.10;0.00;;;19.10;99.90;;;;;;4981064;28;20546;-90
2022/07/01 05:25:26;;;;;;;0.10;0.10;;;19.20;99.90;;;;;;4989275;28;20854;-89
2022/07/01 05:27:52;;;;;;;0.00;0.00;;;19.30;99.90;;;;;;4974265;28;20193;-89
2022/07/01 05:30:17;;;;;;;0.00;0.00;;;19.40;99.90;;;;;;4989988;28;20272;-90
2022/07/01 05:32:43;;;;;;;0.10;0.00;;;19.40;99.90;;;;;;4993621;28;20224;-90
2022/07/01 05:35:08;;;;;;;0.07;0.00;;;19.40;99.90;;;;;;4992310;28;20233;-90
2022/07/01 05:37:34;;;;;;;0.10;0.00;;;19.30;99.90;;;;;;4961928;28;20221;-92
2022/07/01 05:39:59;;;;;;;0.10;0.00;;;19.10;99.90;;;;;;4987714;28;20200;-88
2022/07/01 05:42:25;;;;;;;0.10;0.00;;;18.90;99.90;;;;;;4973529;28;20372;-90
2022/07/01 05:44:50;;;;;;;0.00;0.00;;;18.80;99.90;;;;;;4993108;28;20185;-88
2022/07/01 05:47:16;;;;;;;0.00;0.00;;;18.70;99.90;;;;;;4988771;28;20184;-89
2022/07/01 05:49:41;;;;;;;0.00;0.00;;;18.70;99.90;;;;;;4990397;28;20300;-89
2022/07/01 05:52:07;;;;;;;0.10;0.10;;;18.60;99.90;;;;;;4990967;28;20189;-88
2022/07/01 05:54:32;;;;;;;0.10;0.10;;;18.50;99.90;;;;;;4987602;28;23677;-89
2022/07/01 05:56:58;;;;;;;0.10;0.10;;;18.40;99.90;;;;;;4998676;28;20469;-89
2022/07/01 05:59:23;;;;;;;0.00;0.00;;;18.40;99.90;;;;;;4981598;28;20222;-88
2022/07/01 06:01:50;;;;;;;0.10;0.00;;;18.40;99.90;;;;;;4973208;28;20265;-89
2022/07/01 06:04:16;;;;;;;0.10;0.10;;;18.40;99.90;;;;;;4975825;28;20188;-90
2022/07/01 06:07:00;;;;;;;0.10;0.10;;;18.50;99.90;;;;;;4995700;28;20452;-89
2022/07/01 06:09:26;;;;;;;0.10;0.10;;;18.40;99.90;;;;;;4965530;28;20660;-89
2022/07/01 06:11:51;;;;;;;0.07;0.00;;;18.40;99.90;;;;;;4969582;28;20452;-90
2022/07/01 06:14:17;;;;;;;0.00;0.00;;;18.30;99.90;;;;;;4973353;28;20354;-88
2022/07/01 06:16:42;;;;;;;0.10;0.10;;;18.30;99.90;;;;;;4986826;28;20181;-90
2022/07/01 06:19:08;;;;;;;0.10;0.10;;;18.30;99.90;;;;;;4982853;28;20239;-89
2022/07/01 06:21:33;;;;;;;0.10;0.00;;;18.20;99.90;;;;;;4989313;28;20195;-89
2022/07/01 06:23:59;;;;;;;0.10;0.00;;;18.30;99.90;;;;;;4987105;28;20193;-90
2022/07/01 06:26:25;;;;;;;0.10;0.00;;;18.20;99.90;;;;;;4988662;28;20189;-87
2022/07/01 06:28:51;;;;;;;0.10;0.10;;;18.10;99.90;;;;;;4969185;28;20284;-87
2022/07/01 06:31:16;;;;;;;0.10;0.10;;;18.10;99.90;;;;;;4984274;28;20936;-89
2022/07/01 06:33:41;;;;;;;0.10;0.10;;;18.00;99.90;;;;;;4989197;28;20200;-88
2022/07/01 06:36:07;;;;;;;0.10;0.00;;;17.90;99.90;;;;;;4990827;28;20228;-86
2022/07/01 06:38:33;;;;;;;0.10;0.10;;;17.90;99.90;;;;;;4988896;28;20255;-87
2022/07/01 06:43:43;;;;;;;0.10;0.10;;;17.70;99.90;;;;;;4990570;28;20199;-85
2022/07/01 06:46:09;;;;;;;0.10;0.10;;;17.80;99.90;;;;;;4987694;28;20924;-85
2022/07/01 06:48:35;;;;;;;0.10;0.10;;;17.70;99.90;;;;;;4970279;28;20214;-85
2022/07/01 06:51:02;;;;;;;0.10;0.10;;;17.60;99.90;;;;;;4989537;28;20465;-87
2022/07/01 06:53:28;;;;;;;0.10;0.00;;;17.60;99.90;;;;;;4982338;28;20273;-86
2022/07/01 06:55:53;;;;;;;0.10;0.10;;;17.50;99.90;;;;;;4984030;28;20905;-87
2022/07/01 06:58:19;;;;;;;0.10;0.10;;;17.50;99.90;;;;;;4988857;28;20225;-86
2022/07/01 07:00:44;;;;;;;0.10;0.10;;;17.60;99.90;;;;;;4986436;28;20231;-85
2022/07/01 07:03:10;;;;;;;0.10;0.10;;;17.60;99.90;;;;;;4969707;28;20193;-88
2022/07/01 07:05:35;;;;;;;0.10;0.10;;;17.50;99.90;;;;;;4986269;28;20650;-87
2022/07/01 07:08:02;;;;;;;0.10;0.10;;;17.50;99.90;;;;;;4988950;28;20197;-86
2022/07/01 07:10:27;;;;;;;0.10;0.10;;;17.40;99.90;;;;;;4995089;28;20533;-84
2022/07/01 07:12:53;;;;;;;0.10;0.10;;;17.30;99.90;;;;;;4974593;28;20454;-84
2022/07/01 07:15:19;;;;;;;0.10;0.10;;;17.30;99.90;;;;;;4990272;28;20295;-86
2022/07/01 07:17:44;;;;;;;0.10;0.10;;;17.20;99.90;;;;;;4972193;28;20220;-84
2022/07/01 07:20:10;;;;;;;0.10;0.10;;;17.00;99.90;;;;;;4994234;28;20452;-85
2022/07/01 07:22:36;;;;;;;0.10;0.10;;;17.10;99.90;;;;;;4998788;28;20189;-86
2022/07/01 07:25:02;;;;;;;0.10;0.10;;;17.00;99.90;;;;;;4991121;28;20216;-86
2022/07/01 07:27:28;;;;;;;0.10;0.10;;;17.00;99.90;;;;;;4982191;28;20204;-87
2022/07/01 07:29:53;;;;;;;0.10;0.10;;;16.90;99.90;;;;;;5006864;28;20337;-88
2022/07/01 07:32:19;;;;;;;0.10;0.10;;;16.90;99.90;;;;;;4992134;28;20482;-91
2022/07/01 07:34:44;;;;;;;0.10;0.10;;;16.90;99.90;;;;;;4999167;28;20244;-87
2022/07/01 07:37:10;;;;;;;0.10;0.10;;;16.90;99.90;;;;;;4973158;28;20510;-89
2022/07/01 07:39:35;;;;;;;0.10;0.10;;;16.90;99.90;;;;;;4973209;28;20185;-90
2022/07/01 07:42:01;;;;;;;0.10;0.10;;;16.90;99.90;;;;;;4990170;28;20713;-93
2022/07/01 07:44:27;;;;;;;0.10;0.10;;;16.80;99.90;;;;;;4991481;28;20275;-88
2022/07/01 07:46:53;;;;;;;0.10;0.10;;;16.80;99.90;;;;;;4988986;28;20189;-90
2022/07/01 07:49:19;;;;;;;0.10;0.10;;;16.70;99.90;;;;;;4990487;28;20630;-89
2022/07/01 07:51:44;;;;;;;0.10;0.10;;;16.70;99.90;;;;;;5006450;28;20188;-88
2022/07/01 07:54:10;;;;;;;0.20;0.20;;;16.70;99.90;;;;;;4970838;28;20189;-88
2022/07/01 07:56:35;;;;;;;0.10;0.10;;;16.60;99.90;;;;;;4980859;28;20185;-87
2022/07/01 07:59:00;;;;;;;0.10;0.10;;;16.70;99.90;;;;;;4984358;28;20603;-86
2022/07/01 08:01:26;;;;;;;0.10;0.10;;;16.70;99.90;;;;;;4971434;28;20201;-87
2022/07/01 08:03:52;;;;;;;0.10;0.10;;;16.60;99.90;;;;;;4987163;28;20204;-87
2022/07/01 08:06:18;;;;;;;0.10;0.10;;;16.60;99.90;;;;;;4986699;28;20197;-86
2022/07/01 08:08:43;;;;;;;0.10;0.10;;;16.60;99.90;;;;;;4995864;28;20214;-88
2022/07/01 08:11:09;;;;;;;0.10;0.10;;;16.70;99.90;;;;;;4974042;28;20459;-85
2022/07/01 08:13:34;;;;;;;0.10;0.00;;;16.50;99.90;;;;;;4989052;28;20303;-88
2022/07/01 08:16:00;;;;;;;0.10;0.10;;;16.50;99.90;;;;;;4986245;28;20220;-87
2022/07/01 08:18:26;;;;;;;0.10;0.10;;;16.70;99.90;;;;;;4966270;28;20220;-86
2022/07/01 08:20:52;;;;;;;0.10;0.10;;;16.80;99.90;;;;;;4983112;28;20505;-85
2022/07/01 08:23:22;;;;;;;0.10;0.10;;;16.70;99.90;;;;;;4998079;28;20373;-85
2022/07/01 08:25:49;;;;;;;0.10;0.10;;;16.50;99.90;;;;;;4967712;28;20448;-84
2022/07/01 08:28:15;;;;;;;0.10;0.10;;;16.60;99.90;;;;;;4989634;28;20510;-85
2022/07/01 08:30:41;;;;;;;0.10;0.10;;;16.80;99.90;;;;;;4992634;28;20466;-87
2022/07/01 08:33:06;;;;;;;0.10;0.10;;;16.90;99.90;;;;;;4991199;28;20527;-84
2022/07/01 08:35:32;;;;;;;0.10;0.10;;;17.00;99.90;;;;;;4990680;28;20232;-85
2022/07/01 08:37:57;;;;;;;0.10;0.10;;;17.10;99.90;;;;;;4987848;28;20221;-86
2022/07/01 08:40:27;;;;;;;0.10;0.10;;;17.30;99.90;;;;;;4994144;28;20188;-85
2022/07/01 08:43:00;;;;;;;0.10;0.10;;;17.60;99.90;;;;;;4986209;28;20183;-88
2022/07/01 08:45:28;;;;;;;0.10;0.10;;;17.60;99.90;;;;;;4974286;28;20819;-87
2022/07/01 08:48:00;;;;;;;0.10;0.10;;;17.80;99.90;;;;;;5001153;28;20459;-86
2022/07/01 08:50:27;;;;;;;0.10;0.00;;;18.00;99.90;;;;;;4994625;28;20506;-86
2022/07/01 08:52:53;;;;;;;0.10;0.10;;;17.80;99.90;;;;;;4992063;28;20479;-86
2022/07/01 08:55:20;;;;;;;0.10;0.00;;;17.80;99.90;;;;;;4970880;28;20480;-86
2022/07/01 08:57:46;;;;;;;0.10;0.10;;;18.10;99.90;;;;;;4985995;28;20212;-88
2022/07/01 09:00:12;;;;;;;0.00;0.00;;;18.40;99.90;;;;;;4970863;28;20889;-86
2022/07/01 09:02:59;;;;;;;0.00;0.00;;;18.60;99.90;;;;;;4991353;28;20462;-87
2022/07/01 09:05:26;;;;;;;0.00;0.00;;;18.90;99.90;;;;;;4989064;28;20193;-86
2022/07/01 09:07:59;;;;;;;0.07;0.00;;;18.90;99.90;;;;;;4992490;28;20474;-88
2022/07/01 09:10:26;;;;;;;0.00;0.00;;;19.10;99.90;;;;;;4981575;28;21067;-89
2022/07/01 09:12:51;;;;;;;0.00;0.00;;;19.00;99.90;;;;;;4987990;28;20440;-92
2022/07/01 09:15:27;;;;;;;0.00;0.00;;;18.80;99.90;;;;;;4986590;28;20996;-89
2022/07/01 09:18:03;;;;;;;0.00;0.00;;;19.00;99.90;;;;;;4987249;28;20216;-90
2022/07/01 09:20:30;;;;;;;0.00;0.00;;;19.00;99.90;;;;;;4983115;28;20450;-89
2022/07/01 09:23:01;;;;;;;0.00;0.00;;;18.90;99.90;;;;;;4976498;28;20471;-90
2022/07/01 09:25:32;;;;;;;0.00;0.00;;;18.80;99.90;;;;;;4989456;28;20447;-93
2022/07/01 09:28:08;;;;;;;0.00;0.00;;;19.00;99.90;;;;;;4985669;28;20439;-88
2022/07/01 09:30:35;;;;;;;0.07;0.00;;;18.70;99.90;;;;;;4969479;28;20464;-86
2022/07/01 09:33:14;;;;;;;0.10;0.00;;;18.50;99.90;;;;;;4987174;28;20516;-93
2022/07/01 09:35:42;;;;;;;0.10;0.10;;;18.40;99.90;;;;;;4988889;28;20483;-91
2022/07/01 09:38:13;;;;;;;0.10;0.00;;;18.40;99.90;;;;;;4990678;28;20479;-91
2022/07/01 09:40:46;;;;;;;0.07;0.00;;;18.30;99.90;;;;;;4974024;28;20449;-91
2022/07/01 09:43:24;;;;;;;0.10;0.10;;;18.20;99.90;;;;;;4990524;28;20452;-93
2022/07/01 09:45:51;;;;;;;0.10;0.10;;;18.40;99.90;;;;;;4989440;28;20441;-92
2022/07/01 09:48:16;;;;;;;0.10;0.10;;;18.60;99.90;;;;;;4991793;28;20456;-89
2022/07/01 09:50:43;;;;;;;0.10;0.10;;;18.60;99.90;;;;;;4993109;28;20459;-90
2022/07/01 09:53:10;;;;;;;0.10;0.00;;;18.50;99.90;;;;;;4971492;28;20213;-87
2022/07/01 09:55:36;;;;;;;0.10;0.10;;;18.60;99.90;;;;;;4988340;28;20455;-89
2022/07/01 09:58:01;;;;;;;0.10;0.00;;;18.80;99.90;;;;;;4976723;28;20471;-87
2022/07/01 10:00:29;;;;;;;0.10;0.10;;;18.90;99.90;;;;;;4986061;28;20243;-88
2022/07/01 10:02:56;;;;;;;0.10;0.10;;;19.10;99.90;;;;;;4972373;28;20258;-86
2022/07/01 10:05:24;;;;;;;0.10;0.10;;;19.20;99.90;;;;;;4992376;28;20458;-87
2022/07/01 10:08:15;;;;;;;0.10;0.10;;;19.40;99.90;;;;;;4972498;28;20551;-87
2022/07/01 10:11:22;;;;;;;0.10;0.10;;;19.50;99.90;;;;;;4987745;28;20513;-88
2022/07/01 10:13:48;;;;;;;0.10;0.00;;;19.30;99.90;;;;;;4983740;28;20452;-87
2022/07/01 10:16:14;;;;;;;0.10;0.10;;;19.10;99.90;;;;;;4991629;28;20600;-90
2022/07/01 10:18:40;;;;;;;0.10;0.00;;;18.80;99.90;;;;;;4971999;28;20495;-88
2022/07/01 10:21:06;;;;;;;0.10;0.00;;;18.50;99.90;;;;;;4971514;28;20448;-91
2022/07/01 10:23:41;;;;;;;0.10;0.00;;;18.30;99.90;;;;;;4990827;28;20193;-87
2022/07/01 10:26:07;;;;;;;0.10;0.10;;;18.30;99.90;;;;;;4983002;28;20262;-87
2022/07/01 10:28:48;;;;;;;0.10;0.10;;;18.20;99.90;;;;;;4986033;28;21137;-87
2022/07/01 10:31:16;;;;;;;0.10;0.00;;;18.20;99.90;;;;;;4991849;28;20456;-84
2022/07/01 10:33:53;;;;;;;0.10;0.10;;;18.00;99.90;;;;;;4988721;28;20979;-84
2022/07/01 10:36:21;;;;;;;0.10;0.10;;;18.00;99.90;;;;;;4977277;28;20486;-86
2022/07/01 10:39:09;;;;;;;0.10;0.10;;;18.00;99.90;;;;;;4989751;28;20487;-86
2022/07/01 10:41:45;;;;;;;0.10;0.00;;;17.90;99.90;;;;;;4982016;28;20517;-87
2022/07/01 10:44:14;;;;;;;0.10;0.10;;;17.90;99.90;;;;;;4985106;28;20448;-85
2022/07/01 11:00:14;;;;;;;0.10;0.10;;;17.80;99.90;;;;;;4956922;28;20492;-95
2022/07/01 11:02:39;;;;;;;0.10;0.10;;;17.80;99.90;;;;;;4937282;28;21072;-87
2022/07/01 11:05:13;;;;;;;0.10;0.10;;;17.90;99.90;;;;;;4961568;28;20485;-89
2022/07/01 11:07:47;;;;;;;0.10;0.10;;;17.80;99.90;;;;;;4954264;28;20182;-87
2022/07/01 11:10:17;;;;;;;0.10;0.10;;;17.70;99.90;;;;;;4963923;28;20444;-90
2022/07/01 11:12:48;;;;;;;0.20;0.20;;;17.60;99.90;;;;;;4967754;28;20448;-89
2022/07/01 11:15:15;;;;;;;0.07;0.00;;;17.60;99.90;;;;;;4961689;28;21005;-85
2022/07/01 11:17:43;;;;;;;0.20;0.20;;;17.60;99.90;;;;;;4965052;28;20958;-85
2022/07/01 11:20:10;;;;;;;0.10;0.10;;;17.70;99.90;;;;;;4966875;28;20461;-88
2022/07/01 11:22:35;;;;;;;0.10;0.00;;;17.40;99.90;;;;;;4962940;28;20523;-87
2022/07/01 11:25:07;;;;;;;0.10;0.10;;;17.50;99.90;;;;;;4945294;28;20956;-87
2022/07/01 11:27:34;;;;;;;0.10;0.00;;;17.70;99.90;;;;;;4962861;28;20185;-89
2022/07/01 11:30:04;;;;;;;0.10;0.10;;;17.60;99.90;;;;;;4946139;28;20457;-87
2022/07/01 11:32:35;;;;;;;0.10;0.10;;;17.40;99.90;;;;;;4937467;28;20445;-87
2022/07/01 11:39:21;;;;;;;0.10;0.10;;;17.40;99.90;;;;;;4946431;28;20926;-87
2022/07/01 11:40:33;;;;;;;0.10;0.10;;;17.50;99.90;;;;;;4967001;28;20483;-86
2022/07/01 11:42:59;;;;;;;0.10;0.10;;;17.50;99.90;;;;;;4949367;28;20826;-86
2022/07/01 11:45:26;;;;;;;0.10;0.10;;;17.50;99.90;;;;;;4965332;28;20274;-87
2022/07/01 11:47:52;;;;;;;0.10;0.10;;;17.40;99.90;;;;;;4969028;28;20185;-86
2022/07/01 11:50:17;;;;;;;0.10;0.10;;;17.40;99.90;;;;;;4949188;28;20441;-85
2022/07/01 11:52:43;;;;;;;0.10;0.10;;;17.40;99.90;;;;;;4944262;28;20965;-85
2022/07/01 11:55:09;;;;;;;0.10;0.10;;;17.40;99.90;;;;;;4948852;28;20828;-83
2022/07/01 11:57:34;;;;;;;0.10;0.10;;;17.30;99.90;;;;;;4967762;28;20917;-83
2022/07/01 12:00:11;;;;;;;0.10;0.10;;;17.30;99.90;;;;;;4963710;28;20273;-84
2022/07/01 12:02:37;;;;;;;0.10;0.10;;;17.00;99.90;;;;;;4966654;28;20192;-84
2022/07/01 12:05:03;;;;;;;0.10;0.10;;;16.90;99.90;;;;;;4965727;28;20445;-84
2022/07/01 12:07:29;;;;;;;0.10;0.10;;;17.00;99.90;;;;;;4966545;28;20198;-84
2022/07/01 12:09:55;;;;;;;0.10;0.00;;;17.10;99.90;;;;;;4961028;28;20456;-83
2022/07/01 12:12:25;;;;;;;0.10;0.10;;;17.10;99.90;;;;;;4970758;28;20810;-84
2022/07/01 12:14:59;;;;;;;0.10;0.10;;;17.10;99.90;;;;;;4957289;28;20290;-83
2022/07/01 12:17:26;;;;;;;0.10;0.10;;;17.00;99.90;;;;;;4963234;28;20449;-84
2022/07/01 12:19:53;;;;;;;0.10;0.10;;;17.10;99.90;;;;;;4963705;28;20495;-85
2022/07/01 12:22:24;;;;;;;0.10;0.10;;;17.10;99.90;;;;;;4967498;28;20453;-85
2022/07/01 12:24:51;;;;;;;0.10;0.10;;;17.20;99.90;;;;;;4976557;28;21011;-84
2022/07/01 12:27:20;;;;;;;0.10;0.10;;;17.10;99.90;;;;;;4963368;28;20444;-84
2022/07/01 12:29:46;;;;;;;0.10;0.10;;;17.10;99.90;;;;;;4966238;28;20441;-86
2022/07/01 12:32:14;;;;;;;0.10;0.10;;;17.20;99.90;;;;;;4964568;28;20453;-86
2022/07/01 12:34:47;;;;;;;0.10;0.10;;;17.10;99.90;;;;;;4967769;28;20212;-86
2022/07/01 12:37:17;;;;;;;0.10;0.10;;;17.10;99.90;;;;;;4946752;28;20968;-84
2022/07/01 12:39:56;;;;;;;0.10;0.10;;;17.20;99.90;;;;;;4962117;28;20540;-85
2022/07/01 12:42:43;;;;;;;0.10;0.10;;;17.00;99.90;;;;;;4959715;28;20455;-87
2022/07/01 12:45:23;;;;;;;0.10;0.10;;;17.20;99.90;;;;;;4927023;28;20473;-87
2022/07/01 12:47:54;;;;;;;0.10;0.10;;;17.20;99.90;;;;;;4955577;28;20446;-88
2022/07/01 12:50:24;;;;;;;0.10;0.10;;;17.30;99.90;;;;;;4965064;28;20447;-87
2022/07/01 12:53:08;;;;;;;0.10;0.00;;;17.20;99.90;;;;;;4945587;28;20652;-87
2022/07/01 12:55:54;;;;;;;0.10;0.10;;;17.20;99.90;;;;;;4964323;28;20541;-86
2022/07/01 12:58:23;;;;;;;0.10;0.10;;;17.20;99.90;;;;;;4944364;28;20968;-85
2022/07/01 13:00:51;;;;;;;0.10;0.10;;;17.30;99.90;;;;;;4949972;28;20480;-85
2022/07/01 13:03:22;;;;;;;0.10;0.10;;;17.40;99.90;;;;;;4945685;28;20461;-87
2022/07/01 13:05:48;;;;;;;0.10;0.00;;;17.50;99.90;;;;;;4964746;28;20452;-86
2022/07/01 13:08:14;;;;;;;0.10;0.10;;;17.70;99.90;;;;;;4943287;28;20457;-87
2022/07/01 13:10:40;;;;;;;0.10;0.10;;;17.90;99.90;;;;;;4962043;28;20540;-84
2022/07/01 13:13:06;;;;;;;0.10;0.10;;;17.90;99.90;;;;;;4961222;28;20536;-84
2022/07/01 13:15:32;;;;;;;0.10;0.00;;;17.70;99.90;;;;;;4968381;28;20182;-83
2022/07/01 13:17:58;;;;;;;0.10;0.10;;;17.50;99.90;;;;;;4965448;28;20214;-82
2022/07/01 13:20:24;;;;;;;0.10;0.00;;;17.40;99.90;;;;;;4966012;28;20445;-81